Time;durP1;ratioP1;P1;durP2;ratioP2;P2;SDS_P1;SDS_P2;PMS_P1;PMS_P2;Temp;Humidity;BMP_temperature;BMP_pressure;BME280_temperature;BME280_humidity;BME280_pressure;Samples;Min_cycle;Max_cycle;Signal;HPM_P1;HPM_P2
2022/07/18 00:01:28;;;;;;;11.57;5.38;;;;;;;18.38;59.03;102365.16;5006434;28;20041;-60
2022/07/18 00:03:53;;;;;;;15.13;6.05;;;;;;;18.40;58.95;102362.56;5007423;28;20030;-61
2022/07/18 00:06:18;;;;;;;11.77;5.55;;;;;;;18.35;59.52;102353.66;5006285;28;20057;-60
2022/07/18 00:08:44;;;;;;;9.45;5.63;;;;;;;18.30;59.26;102355.38;5007509;28;20118;-60
2022/07/18 00:11:09;;;;;;;11.43;5.78;;;;;;;18.27;59.42;102350.91;5009755;28;20033;-60
2022/07/18 00:13:34;;;;;;;10.73;5.85;;;;;;;18.20;59.70;102346.41;5007837;28;20033;-60
2022/07/18 00:16:00;;;;;;;10.73;5.70;;;;;;;18.16;60.11;102357.75;5007592;28;20040;-60
2022/07/18 00:18:25;;;;;;;10.68;6.18;;;;;;;18.13;59.96;102349.81;5006995;28;20029;-61
2022/07/18 00:20:50;;;;;;;11.05;6.07;;;;;;;18.12;59.81;102351.56;5006808;28;20068;-60
2022/07/18 00:23:15;;;;;;;13.00;6.07;;;;;;;18.07;60.21;102345.31;5008521;28;20034;-60
2022/07/18 00:25:41;;;;;;;14.77;6.93;;;;;;;18.03;60.51;102346.13;5007815;28;20085;-60
2022/07/18 00:28:06;;;;;;;13.27;6.40;;;;;;;18.01;60.44;102339.94;5007345;28;20108;-60
2022/07/18 00:30:32;;;;;;;12.25;7.47;;;;;;;17.96;60.26;102336.31;5005377;28;20026;-60
2022/07/18 00:32:57;;;;;;;14.20;6.85;;;;;;;17.90;60.34;102330.09;5006832;28;20021;-60
2022/07/18 00:35:22;;;;;;;14.27;6.57;;;;;;;17.87;60.07;102323.84;5011309;28;20145;-61
2022/07/18 00:37:48;;;;;;;14.90;6.38;;;;;;;17.84;60.69;102331.69;5009520;28;20292;-61
2022/07/18 00:40:13;;;;;;;11.93;7.18;;;;;;;17.78;60.43;102324.56;5008312;28;20026;-61
2022/07/18 00:42:38;;;;;;;12.98;6.93;;;;;;;17.73;60.71;102323.63;5008550;28;20049;-61
2022/07/18 00:45:05;;;;;;;11.07;6.43;;;;;;;17.68;61.35;102325.28;5012644;28;20469;-61
2022/07/18 00:47:30;;;;;;;12.70;6.72;;;;;;;17.66;60.78;102324.38;5013381;28;20032;-61
2022/07/18 00:49:55;;;;;;;10.95;6.63;;;;;;;17.62;61.22;102320.78;5007280;28;20038;-61
2022/07/18 00:52:21;;;;;;;12.35;6.70;;;;;;;17.55;61.82;102317.16;5010761;28;20152;-61
2022/07/18 00:54:46;;;;;;;14.68;7.63;;;;;;;17.54;61.48;102317.13;5011674;28;20026;-60
2022/07/18 00:57:12;;;;;;;14.70;7.43;;;;;;;17.48;61.66;102310.00;5012375;28;20121;-60
2022/07/18 01:02:22;;;;;;;16.00;7.88;;;;;;;17.40;62.11;102314.22;5005283;28;20056;-61
2022/07/18 01:04:48;;;;;;;18.77;8.30;;;;;;;17.38;61.63;102313.31;5009425;28;20014;-61
2022/07/18 01:07:13;;;;;;;13.63;7.65;;;;;;;17.35;61.54;102311.50;5010192;28;20030;-61
2022/07/18 01:09:39;;;;;;;14.20;7.70;;;;;;;17.32;61.74;102300.91;5009626;28;20038;-61
2022/07/18 01:12:05;;;;;;;13.93;7.65;;;;;;;17.27;61.76;102306.94;5005092;28;20287;-61
2022/07/18 01:14:32;;;;;;;15.07;7.63;;;;;;;17.25;61.17;102306.00;5011976;28;20034;-61
2022/07/18 01:16:57;;;;;;;16.92;9.23;;;;;;;17.21;61.67;102294.56;5010296;28;20037;-61
2022/07/18 01:19:22;;;;;;;14.77;7.68;;;;;;;17.20;61.82;102298.91;5010177;28;20485;-61
2022/07/18 01:21:48;;;;;;;14.77;7.82;;;;;;;17.17;61.56;102297.97;5010764;28;20061;-61
2022/07/18 01:24:13;;;;;;;16.58;7.93;;;;;;;17.11;62.52;102297.88;5011405;28;20109;-61
2022/07/18 01:26:38;;;;;;;19.08;8.65;;;;;;;17.06;62.30;102300.41;5010526;28;20130;-61
2022/07/18 01:29:04;;;;;;;17.17;8.75;;;;;;;17.02;62.34;102290.66;5008306;28;20473;-61
2022/07/18 01:31:33;;;;;;;17.75;9.02;;;;;;;16.98;62.19;102297.59;5009507;28;20124;-61
2022/07/18 01:33:59;;;;;;;16.65;9.18;;;;;;;16.94;62.48;102300.16;5011505;28;20033;-61
2022/07/18 01:36:24;;;;;;;17.13;9.00;;;;;;;16.90;62.79;102300.94;5009589;28;20053;-61
2022/07/18 01:38:50;;;;;;;19.65;9.60;;;;;;;16.85;62.65;102300.81;5011365;28;20546;-61
2022/07/18 01:41:15;;;;;;;21.42;9.57;;;;;;;16.82;62.88;102300.75;5009190;28;20018;-61
2022/07/18 01:43:41;;;;;;;18.35;9.25;;;;;;;16.77;63.33;102295.41;5011299;28;20573;-60
2022/07/18 01:46:09;;;;;;;22.13;9.57;;;;;;;16.72;63.47;102299.66;5012116;28;20037;-61
2022/07/18 01:48:37;;;;;;;16.95;9.40;;;;;;;16.69;63.33;102304.84;5010774;28;20500;-61
2022/07/18 01:51:03;;;;;;;19.23;9.85;;;;;;;16.67;63.41;102299.56;5010921;28;20064;-61
2022/07/18 01:53:28;;;;;;;20.50;10.50;;;;;;;16.64;62.95;102301.22;5011765;28;20064;-61
2022/07/18 01:55:53;;;;;;;16.30;9.20;;;;;;;16.64;62.86;102298.59;5009741;28;20124;-60
2022/07/18 01:58:19;;;;;;;18.42;9.32;;;;;;;16.66;62.71;102296.91;5007923;28;20049;-60
2022/07/18 02:00:44;;;;;;;18.15;9.27;;;;;;;16.64;63.26;102296.88;5011724;28;20045;-60
2022/07/18 02:03:09;;;;;;;21.73;9.82;;;;;;;16.64;61.97;102302.13;5010160;28;20025;-61
2022/07/18 02:05:34;;;;;;;18.88;10.38;;;;;;;16.62;62.53;102297.69;5012047;28;20523;-61
2022/07/18 02:08:00;;;;;;;22.27;9.50;;;;;;;16.60;63.00;102292.38;5010707;28;20053;-60
2022/07/18 02:10:25;;;;;;;20.15;9.93;;;;;;;16.56;63.51;102292.28;5009961;28;20041;-60
2022/07/18 02:12:51;;;;;;;22.23;10.13;;;;;;;16.48;63.89;102289.47;5008729;28;20030;-61
2022/07/18 02:15:16;;;;;;;18.75;9.13;;;;;;;16.48;63.09;102281.56;5004579;28;20038;-60
2022/07/18 02:17:42;;;;;;;23.80;10.00;;;;;;;16.43;62.67;102270.97;5011106;28;20473;-61
2022/07/18 02:20:10;;;;;;;23.70;10.38;;;;;;;16.40;63.40;102276.16;5009010;28;20026;-61
2022/07/18 02:22:35;;;;;;;28.33;10.00;;;;;;;16.36;63.22;102278.69;5010715;28;20025;-61
2022/07/18 02:25:01;;;;;;;21.27;10.13;;;;;;;16.37;63.17;102269.94;5007483;28;20026;-60
2022/07/18 02:27:26;;;;;;;22.42;9.85;;;;;;;16.35;63.41;102267.25;5000807;28;20026;-61
2022/07/18 02:29:52;;;;;;;22.50;10.75;;;;;;;16.33;63.19;102269.84;5006422;28;20037;-61
2022/07/18 02:32:18;;;;;;;19.42;9.52;;;;;;;16.33;63.25;102264.59;5010047;28;20156;-61
2022/07/18 02:34:43;;;;;;;21.73;10.55;;;;;;;16.29;63.46;102275.00;5007033;28;20187;-61
2022/07/18 02:37:09;;;;;;;19.67;9.73;;;;;;;16.26;63.41;102274.94;5010838;28;20037;-61
2022/07/18 02:39:34;;;;;;;21.92;10.50;;;;;;;16.20;63.92;102278.31;5007557;28;20560;-61
2022/07/18 02:42:00;;;;;;;20.55;10.32;;;;;;;16.13;63.74;102281.66;5007677;28;20028;-61
2022/07/18 02:44:25;;;;;;;21.23;10.75;;;;;;;16.09;64.06;102272.81;5006726;28;20028;-61
2022/07/18 02:46:51;;;;;;;20.25;10.63;;;;;;;16.07;63.79;102269.25;5006108;28;20662;-60
2022/07/18 02:49:28;;;;;;;21.50;10.35;;;;;;;16.06;64.19;102261.31;5009141;28;20044;-61
2022/07/18 02:51:58;;;;;;;23.20;11.45;;;;;;;16.06;63.90;102266.59;5007428;28;20022;-61
2022/07/18 02:54:24;;;;;;;20.77;11.35;;;;;;;15.98;64.42;102262.03;5008527;28;20080;-61
2022/07/18 02:56:51;;;;;;;23.95;11.00;;;;;;;15.96;64.44;102263.75;5009591;28;20489;-61
2022/07/18 02:59:16;;;;;;;17.48;10.43;;;;;;;15.93;64.32;102265.41;5010853;28;20030;-61
2022/07/18 03:01:41;;;;;;;22.52;11.43;;;;;;;15.89;64.92;102267.09;5004899;28;20033;-61
2022/07/18 03:04:07;;;;;;;21.85;11.25;;;;;;;15.86;64.42;102263.47;5009523;28;20022;-60
2022/07/18 03:06:32;;;;;;;19.98;10.27;;;;;;;15.81;64.63;102264.28;5010105;28;20444;-61
2022/07/18 03:08:57;;;;;;;19.85;10.10;;;;;;;15.78;65.02;102252.75;5008249;28;20130;-61
2022/07/18 03:11:22;;;;;;;20.40;10.55;;;;;;;15.74;65.54;102259.69;5009719;28;20029;-61
2022/07/18 03:13:48;;;;;;;18.17;9.45;;;;;;;15.75;64.22;102256.19;5003327;28;20057;-61
2022/07/18 03:16:13;;;;;;;16.95;9.48;;;;;;;15.72;64.74;102250.84;5006728;28;20045;-61
2022/07/18 03:18:38;;;;;;;18.55;9.07;;;;;;;15.68;65.15;102243.75;5007731;28;20493;-61
2022/07/18 03:21:04;;;;;;;21.67;10.35;;;;;;;15.65;65.40;102241.91;5010568;28;20128;-61
2022/07/18 03:23:29;;;;;;;19.10;9.98;;;;;;;15.67;64.62;102235.81;5010194;28;20458;-61
2022/07/18 03:25:54;;;;;;;18.35;10.07;;;;;;;15.65;64.94;102241.03;5008874;28;20025;-61
2022/07/18 03:28:19;;;;;;;24.67;11.13;;;;;;;15.58;65.62;102239.09;5010453;28;20413;-61
2022/07/18 03:30:45;;;;;;;18.25;9.70;;;;;;;15.57;65.76;102237.31;5006196;28;20034;-61
2022/07/18 03:33:10;;;;;;;20.20;9.13;;;;;;;15.53;65.38;102235.50;5004097;28;20088;-61
2022/07/18 03:35:35;;;;;;;18.58;9.70;;;;;;;15.51;65.61;102227.56;5006025;28;20157;-61
2022/07/18 03:38:01;;;;;;;18.00;9.68;;;;;;;15.47;65.57;102229.22;5010306;28;20030;-61
2022/07/18 03:40:26;;;;;;;17.33;9.07;;;;;;;15.44;65.83;102237.03;5003893;28;20116;-61
2022/07/18 03:42:51;;;;;;;16.42;8.90;;;;;;;15.41;65.81;102230.78;5008259;28;20064;-60
2022/07/18 03:45:17;;;;;;;20.75;9.88;;;;;;;15.37;66.24;102229.84;5005956;28;20227;-61
2022/07/18 03:47:42;;;;;;;21.52;10.48;;;;;;;15.34;66.50;102229.75;5007057;28;20025;-61
2022/07/18 03:50:08;;;;;;;21.75;11.73;;;;;;;15.32;66.31;102230.56;5009672;28;20029;-61
2022/07/18 03:52:33;;;;;;;23.88;11.88;;;;;;;15.28;66.53;102234.84;5002793;28;20231;-61
2022/07/18 03:55:01;;;;;;;21.10;11.00;;;;;;;15.28;66.50;102234.84;5003574;28;20034;-61
2022/07/18 03:57:27;;;;;;;19.75;11.18;;;;;;;15.28;66.54;102232.22;5009654;28;20116;-61
2022/07/18 03:59:52;;;;;;;19.80;10.43;;;;;;;15.27;66.91;102233.94;5008594;28;20113;-60
2022/07/18 04:02:17;;;;;;;20.58;9.93;;;;;;;15.28;67.08;102229.59;5009010;28;20075;-61
2022/07/18 04:04:43;;;;;;;20.05;9.98;;;;;;;15.28;66.43;102229.59;5007042;28;20253;-61
2022/07/18 04:07:08;;;;;;;19.90;9.52;;;;;;;15.29;66.26;102226.09;5009272;28;20048;-61
2022/07/18 04:09:33;;;;;;;20.35;10.35;;;;;;;15.30;66.57;102222.63;5008382;28;20132;-61
2022/07/18 04:11:58;;;;;;;18.67;9.80;;;;;;;15.30;66.85;102227.91;5009034;28;20133;-61
2022/07/18 04:14:24;;;;;;;18.83;10.90;;;;;;;15.30;66.45;102222.63;5006233;28;20037;-61
2022/07/18 04:16:49;;;;;;;21.75;10.73;;;;;;;15.28;67.04;102226.97;5007386;28;20026;-61
2022/07/18 04:19:16;;;;;;;21.58;10.68;;;;;;;15.27;67.02;102225.19;5008018;28;20108;-61
2022/07/18 04:21:42;;;;;;;20.80;11.93;;;;;;;15.22;67.23;102211.94;5010176;28;20037;-61
2022/07/18 04:24:08;;;;;;;21.13;12.65;;;;;;;15.22;67.16;102208.41;5007602;28;20033;-60
2022/07/18 04:26:33;;;;;;;23.92;12.20;;;;;;;15.21;67.42;102204.03;5007573;28;20075;-60
2022/07/18 04:28:58;;;;;;;25.05;12.00;;;;;;;15.21;67.07;102206.66;5007424;28;20444;-60
2022/07/18 04:31:24;;;;;;;21.77;12.07;;;;;;;15.21;66.96;102206.66;5003898;28;20080;-61
2022/07/18 04:33:49;;;;;;;22.55;12.70;;;;;;;15.22;67.32;102208.41;4998320;28;20500;-60
2022/07/18 04:36:14;;;;;;;30.17;12.18;;;;;;;15.23;67.46;102199.69;5009409;28;20436;-60
2022/07/18 04:38:40;;;;;;;35.58;12.77;;;;;;;15.23;66.84;102199.69;5010281;28;20030;-60
2022/07/18 04:41:06;;;;;;;26.08;13.48;;;;;;;15.23;67.51;102197.06;5008196;28;20061;-61
2022/07/18 04:43:31;;;;;;;39.45;13.65;;;;;;;15.21;68.15;102202.28;5008298;28;20032;-60
2022/07/18 04:45:57;;;;;;;31.83;13.70;;;;;;;15.20;68.16;102202.25;5009327;28;20383;-61
2022/07/18 04:48:22;;;;;;;32.47;13.60;;;;;;;15.18;68.05;102196.03;5004855;28;20112;-60
2022/07/18 04:50:47;;;;;;;32.55;15.02;;;;;;;15.18;68.47;102201.28;5008987;28;20026;-61
2022/07/18 04:53:13;;;;;;;30.73;14.50;;;;;;;15.17;68.18;102202.16;5004843;28;20623;-61
2022/07/18 04:55:38;;;;;;;33.75;14.95;;;;;;;15.18;68.32;102201.28;5008198;28;20026;-61
2022/07/18 04:58:03;;;;;;;35.58;16.00;;;;;;;15.19;68.81;102209.22;5007890;28;20029;-61
2022/07/18 05:00:29;;;;;;;30.95;17.38;;;;;;;15.20;68.95;102200.50;5008514;28;20061;-60
2022/07/18 05:02:56;;;;;;;32.95;17.27;;;;;;;15.21;68.50;102204.03;5006160;28;20025;-61
2022/07/18 05:05:23;;;;;;;27.92;16.75;;;;;;;15.22;69.13;102205.78;5006281;28;20029;-61
2022/07/18 05:07:49;;;;;;;34.17;17.85;;;;;;;15.22;68.46;102203.16;5005965;28;20485;-61
2022/07/18 05:10:17;;;;;;;28.88;16.40;;;;;;;15.25;68.81;102197.97;5006162;28;20457;-60
2022/07/18 05:12:44;;;;;;;32.10;17.75;;;;;;;15.26;69.39;102200.66;5006387;28;20052;-61
2022/07/18 05:15:12;;;;;;;30.10;17.48;;;;;;;15.29;69.51;102203.38;5000086;28;20083;-61
2022/07/18 05:17:38;;;;;;;30.67;18.30;;;;;;;15.30;68.66;102207.75;4997919;28;20386;-61
2022/07/18 05:20:06;;;;;;;26.65;16.83;;;;;;;15.32;69.07;102212.19;5002626;28;20041;-61
2022/07/18 05:22:32;;;;;;;30.35;17.52;;;;;;;15.31;69.45;102208.66;5000914;28;20034;-60
2022/07/18 05:24:58;;;;;;;29.23;17.02;;;;;;;15.34;68.59;102207.84;5004855;28;20018;-61
2022/07/18 05:27:23;;;;;;;33.72;17.95;;;;;;;15.35;69.35;102201.75;5005600;28;20032;-60
2022/07/18 05:29:48;;;;;;;30.50;18.40;;;;;;;15.38;69.29;102201.81;5003197;28;20021;-61
2022/07/18 05:32:14;;;;;;;30.00;17.52;;;;;;;15.39;69.05;102199.22;5012801;28;20030;-60
2022/07/18 05:34:39;;;;;;;30.65;17.98;;;;;;;15.42;69.08;102209.81;5011947;28;20037;-61
2022/07/18 05:37:04;;;;;;;32.35;17.95;;;;;;;15.45;69.32;102212.53;5012940;28;20037;-60
2022/07/18 05:39:30;;;;;;;31.83;17.55;;;;;;;15.46;69.00;102208.16;5010690;28;20409;-60
2022/07/18 05:41:55;;;;;;;31.75;17.83;;;;;;;15.50;69.61;102206.50;5012912;28;20124;-60
2022/07/18 05:44:20;;;;;;;30.98;17.17;;;;;;;15.52;69.09;102210.94;5012169;28;20030;-60
2022/07/18 05:46:47;;;;;;;28.15;17.27;;;;;;;15.56;69.33;102210.16;5010526;28;20092;-61
2022/07/18 05:49:13;;;;;;;31.52;17.58;;;;;;;15.58;69.50;102205.84;5011700;28;20029;-60
2022/07/18 05:51:39;;;;;;;28.13;17.08;;;;;;;15.62;69.34;102212.94;5010005;28;20120;-60
2022/07/18 05:54:04;;;;;;;30.40;16.90;;;;;;;15.66;69.67;102211.28;5011335;28;20104;-61
2022/07/18 05:56:30;;;;;;;32.50;16.90;;;;;;;15.70;68.88;102212.25;5012866;28;20168;-60
2022/07/18 05:58:55;;;;;;;29.10;16.90;;;;;;;15.73;68.73;102210.59;5011889;28;20493;-61
2022/07/18 06:01:20;;;;;;;34.20;17.88;;;;;;;15.78;68.64;102210.69;5011821;28;20040;-60
2022/07/18 06:03:47;;;;;;;29.45;18.38;;;;;;;15.83;68.85;102206.50;5011590;28;20026;-60
2022/07/18 06:06:13;;;;;;;31.40;18.13;;;;;;;15.88;69.27;102206.59;5010754;28;20034;-60
2022/07/18 06:08:38;;;;;;;34.47;18.30;;;;;;;15.94;69.86;102211.97;5011747;28;20058;-60
2022/07/18 06:11:06;;;;;;;34.38;18.58;;;;;;;15.99;70.12;102210.38;5011563;28;20026;-60
2022/07/18 06:13:32;;;;;;;34.70;19.48;;;;;;;16.06;70.46;102212.28;5012548;28;20307;-60
2022/07/18 06:15:57;;;;;;;37.63;19.85;;;;;;;16.13;69.96;102208.94;5011547;28;20310;-60
2022/07/18 06:18:22;;;;;;;35.67;19.48;;;;;;;16.23;70.87;102206.50;5011630;28;20038;-61
2022/07/18 06:20:48;;;;;;;37.03;20.60;;;;;;;16.34;70.69;102186.59;5011305;28;20030;-60
2022/07/18 06:23:13;;;;;;;35.95;18.65;;;;;;;16.45;69.55;102181.53;5012415;28;20018;-60
2022/07/18 06:25:38;;;;;;;35.47;19.98;;;;;;;16.52;69.19;102184.34;5012332;28;20584;-60
2022/07/18 06:28:04;;;;;;;38.67;19.33;;;;;;;16.60;69.58;102191.50;5012313;28;20025;-60
2022/07/18 06:30:29;;;;;;;38.05;20.33;;;;;;;16.68;69.08;102187.25;5010767;28;20037;-60
2022/07/18 06:32:54;;;;;;;35.90;20.13;;;;;;;16.79;69.53;102187.50;5010835;28;20045;-60
2022/07/18 06:35:20;;;;;;;35.63;19.15;;;;;;;16.91;68.61;102189.50;5010185;28;20476;-60
2022/07/18 06:37:46;;;;;;;37.67;19.13;;;;;;;16.97;68.83;102189.63;5011901;28;20108;-60
2022/07/18 06:40:11;;;;;;;35.30;18.45;;;;;;;17.06;68.45;102183.63;5011770;28;20034;-60
2022/07/18 06:42:37;;;;;;;41.28;19.52;;;;;;;17.15;69.20;102168.88;5009517;28;20068;-60
2022/07/18 06:45:03;;;;;;;35.42;17.45;;;;;;;17.25;68.32;102174.31;5011925;28;20033;-60
2022/07/18 06:47:28;;;;;;;31.98;16.48;;;;;;;17.33;67.69;102172.69;5010474;28;20393;-60
2022/07/18 06:49:53;;;;;;;42.72;18.00;;;;;;;17.50;67.32;102180.91;5011869;28;20022;-60
2022/07/18 06:52:19;;;;;;;36.38;16.95;;;;;;;17.59;66.92;102177.50;5010775;28;20034;-60
2022/07/18 06:54:44;;;;;;;35.58;16.55;;;;;;;17.70;67.39;102166.28;5010859;28;20033;-60
2022/07/18 06:57:09;;;;;;;45.65;17.88;;;;;;;17.84;67.64;102169.13;5011186;28;20026;-60
2022/07/18 06:59:36;;;;;;;33.28;17.83;;;;;;;17.96;65.92;102180.72;5012073;28;20026;-60
2022/07/18 07:02:01;;;;;;;33.38;15.73;;;;;;;18.03;66.00;102165.03;5010738;28;20037;-60
2022/07/18 07:04:26;;;;;;;36.72;14.27;;;;;;;18.15;65.78;102171.34;5011484;28;20030;-60
2022/07/18 07:06:52;;;;;;;35.60;15.77;;;;;;;18.27;66.22;102167.97;5011670;28;20223;-60
2022/07/18 07:09:17;;;;;;;36.15;14.70;;;;;;;18.36;65.67;102171.59;5011232;28;20077;-60
2022/07/18 07:11:42;;;;;;;32.78;14.23;;;;;;;18.46;65.07;102169.97;5010293;28;20042;-60
2022/07/18 07:14:08;;;;;;;25.17;14.18;;;;;;;18.56;64.92;102168.34;5011587;28;20117;-60
2022/07/18 07:16:33;;;;;;;26.95;12.75;;;;;;;18.65;64.90;102170.19;5010317;28;20030;-60
2022/07/18 07:18:58;;;;;;;23.50;12.10;;;;;;;18.76;65.23;102173.84;5009507;28;20026;-60
2022/07/18 07:21:24;;;;;;;23.80;11.60;;;;;;;18.91;65.10;102174.00;5010104;28;20045;-60
2022/07/18 07:23:49;;;;;;;21.85;10.45;;;;;;;19.01;64.80;102179.41;5010621;28;20374;-60
2022/07/18 07:26:14;;;;;;;23.17;9.65;;;;;;;19.08;63.83;102178.59;5011108;28;20034;-59
2022/07/18 07:28:40;;;;;;;21.15;9.52;;;;;;;19.22;63.37;102171.69;5011186;28;20152;-58
2022/07/18 07:31:05;;;;;;;17.10;8.00;;;;;;;19.30;63.76;102174.38;5010177;28;20037;-58
2022/07/18 07:33:31;;;;;;;13.07;6.80;;;;;;;19.49;63.73;102171.91;5011081;28;20064;-58
2022/07/18 07:35:57;;;;;;;11.93;5.60;;;;;;;19.57;62.91;102172.88;5010742;28;20040;-59
2022/07/18 07:38:27;;;;;;;11.90;6.55;;;;;;;19.67;61.67;102172.06;5010268;28;20408;-58
2022/07/18 07:40:54;;;;;;;8.05;4.72;;;;;;;19.72;62.29;102174.72;5009117;28;20546;-59
2022/07/18 07:43:19;;;;;;;9.52;4.82;;;;;;;19.81;61.96;102172.16;5010535;28;20100;-59
2022/07/18 07:45:48;;;;;;;6.78;4.20;;;;;;;19.99;59.42;102163.47;5010794;28;20109;-58
2022/07/18 07:48:14;;;;;;;9.95;4.40;;;;;;;20.12;60.55;102162.66;5009681;28;20045;-58
2022/07/18 07:50:40;;;;;;;8.80;3.60;;;;;;;20.23;58.67;102160.03;5009962;28;20034;-58
2022/07/18 07:53:05;;;;;;;6.50;3.97;;;;;;;20.29;56.13;102154.78;5009906;28;20037;-58
2022/07/18 07:55:31;;;;;;;6.65;3.58;;;;;;;20.39;57.48;102149.53;5010570;28;20022;-59
2022/07/18 07:57:56;;;;;;;7.72;3.65;;;;;;;20.47;58.42;102153.09;5010736;28;20121;-60
2022/07/18 08:00:22;;;;;;;10.07;3.78;;;;;;;20.55;58.91;102148.72;5009904;28;20595;-60
2022/07/18 08:02:59;;;;;;;7.65;3.22;;;;;;;20.71;59.57;102144.38;5009566;28;20022;-61
2022/07/18 08:05:25;;;;;;;5.90;3.08;;;;;;;20.79;58.74;102144.38;5008780;28;20492;-57
2022/07/18 08:07:50;;;;;;;6.82;3.47;;;;;;;20.89;57.02;102138.22;5009542;28;20473;-60
2022/07/18 08:10:16;;;;;;;5.95;3.10;;;;;;;21.06;54.89;102140.88;5010281;28;20045;-60
2022/07/18 08:12:41;;;;;;;7.05;3.00;;;;;;;21.16;52.88;102133.81;5010347;28;20026;-60
2022/07/18 08:15:08;;;;;;;5.32;2.80;;;;;;;21.32;50.53;102139.97;5010173;28;20485;-60
2022/07/18 08:17:33;;;;;;;7.13;2.83;;;;;;;21.50;49.89;102129.38;5009568;28;20449;-60
2022/07/18 08:19:59;;;;;;;5.40;2.70;;;;;;;21.58;49.66;102118.81;5007999;28;20276;-60
2022/07/18 08:22:24;;;;;;;5.72;2.65;;;;;;;21.72;49.94;102121.41;5010358;28;20382;-61
2022/07/18 08:24:50;;;;;;;5.47;2.60;;;;;;;21.85;48.94;102112.53;5009201;28;20037;-60
2022/07/18 08:27:16;;;;;;;5.25;2.50;;;;;;;22.02;46.62;102117.78;5009273;28;20401;-60
2022/07/18 08:29:41;;;;;;;4.68;2.40;;;;;;;22.16;46.72;102120.38;5009648;28;20494;-60
2022/07/18 08:32:06;;;;;;;6.43;3.00;;;;;;;22.19;48.17;102124.81;5010102;28;20075;-60
2022/07/18 08:34:32;;;;;;;6.05;2.63;;;;;;;22.24;47.72;102126.53;5008880;28;20121;-60
2022/07/18 08:36:57;;;;;;;5.78;2.40;;;;;;;22.52;45.02;102133.50;5009207;28;20172;-60
2022/07/18 08:39:22;;;;;;;4.97;2.60;;;;;;;22.60;44.66;102136.16;5009192;28;20064;-60
2022/07/18 08:41:50;;;;;;;5.57;2.60;;;;;;;22.73;43.25;102138.69;5009983;28;20393;-60
2022/07/18 08:44:16;;;;;;;6.05;2.47;;;;;;;22.79;46.65;102142.22;5009433;28;20040;-60
2022/07/18 08:46:48;;;;;;;3.80;2.20;;;;;;;22.87;47.20;102140.38;5009454;28;20026;-60
2022/07/18 08:49:14;;;;;;;7.57;2.88;;;;;;;22.94;46.76;102139.44;5009190;28;20040;-61
2022/07/18 08:51:39;;;;;;;5.53;2.47;;;;;;;22.96;48.23;102136.78;4996486;28;20026;-60
2022/07/18 08:54:04;;;;;;;4.82;2.53;;;;;;;22.99;48.01;102132.31;5002632;28;20036;-60
2022/07/18 08:56:30;;;;;;;5.32;2.70;;;;;;;23.11;46.65;102127.84;5010510;28;20030;-62
2022/07/18 08:58:55;;;;;;;4.82;2.50;;;;;;;23.20;46.55;102125.09;5010086;28;20026;-63
2022/07/18 09:01:20;;;;;;;5.30;2.50;;;;;;;23.32;45.25;102122.34;5006379;28;20389;-63
2022/07/18 09:04:14;;;;;;;6.85;2.63;;;;;;;23.40;46.11;102128.44;5009691;28;20382;-63
2022/07/18 09:06:48;;;;;;;6.80;2.70;;;;;;;23.52;47.42;102126.56;5010936;28;20033;-62
2022/07/18 09:09:15;;;;;;;5.25;2.55;;;;;;;23.59;45.70;102130.94;5007037;28;20069;-63
2022/07/18 09:11:54;;;;;;;6.43;2.30;;;;;;;23.68;45.45;102125.53;5001947;28;20030;-61
2022/07/18 09:14:28;;;;;;;5.45;2.50;;;;;;;23.73;45.55;102123.69;5001570;28;20030;-60
2022/07/18 09:17:11;;;;;;;5.57;2.83;;;;;;;23.78;46.24;102124.53;5013705;28;20029;-57
2022/07/18 09:19:40;;;;;;;4.55;2.58;;;;;;;23.88;45.92;102121.78;5012119;28;20205;-59
2022/07/18 09:22:17;;;;;;;5.28;2.60;;;;;;;23.97;46.01;102127.03;5011453;28;20030;-63
2022/07/18 09:24:54;;;;;;;5.53;2.50;;;;;;;24.06;46.69;102126.03;5010392;28;20026;-62
2022/07/18 09:27:28;;;;;;;5.13;2.58;;;;;;;24.21;45.42;102135.59;5013372;28;20071;-63
2022/07/18 09:30:12;;;;;;;5.30;2.70;;;;;;;24.30;47.12;102124.81;5013758;28;20033;-62
2022/07/18 09:32:39;;;;;;;5.72;2.72;;;;;;;24.37;45.98;102130.94;5012073;28;20033;-58
2022/07/18 09:35:06;;;;;;;5.07;2.40;;;;;;;24.46;46.23;102131.72;5009055;28;20037;-62
2022/07/18 09:37:32;;;;;;;6.35;3.00;;;;;;;24.60;43.27;102133.31;5010965;28;20109;-62
2022/07/18 09:40:17;;;;;;;6.20;3.03;;;;;;;24.59;45.99;102134.19;5012089;28;20097;-62
2022/07/18 09:42:43;;;;;;;5.25;2.88;;;;;;;24.73;44.48;102134.88;5012512;28;20018;-62
2022/07/18 09:45:08;;;;;;;5.70;3.00;;;;;;;24.85;41.95;102128.47;5011639;28;20076;-62
2022/07/18 09:47:53;;;;;;;4.95;2.85;;;;;;;25.06;44.63;102132.59;5009247;28;20472;-62
2022/07/18 09:50:25;;;;;;;7.68;2.90;;;;;;;25.14;45.51;102130.69;5005016;28;20112;-62
2022/07/18 09:52:58;;;;;;;6.25;2.90;;;;;;;25.18;45.74;102129.72;5005358;28;20038;-62
2022/07/18 09:55:23;;;;;;;5.45;2.50;;;;;;;25.36;44.99;102129.47;5010747;28;20045;-62
2022/07/18 09:58:08;;;;;;;4.72;2.85;;;;;;;25.45;45.15;102126.66;5012383;28;20018;-62
2022/07/18 10:00:35;;;;;;;7.28;2.55;;;;;;;25.70;41.80;102119.03;5011415;28;20209;-62
2022/07/18 10:03:03;;;;;;;5.13;2.67;;;;;;;25.77;41.71;102119.81;5001514;28;20029;-62
2022/07/18 10:05:31;;;;;;;5.73;2.73;;;;;;;25.87;41.11;102116.06;5011223;28;20057;-62
2022/07/18 10:07:59;;;;;;;7.10;3.30;;;;;;;26.06;44.11;102113.03;5008610;28;20560;-62
2022/07/18 10:10:27;;;;;;;6.05;3.00;;;;;;;26.16;42.15;102118.13;5009617;28;20280;-63
2022/07/18 10:12:55;;;;;;;6.15;3.10;;;;;;;26.33;38.90;102119.56;5008964;28;20033;-62
2022/07/18 10:15:22;;;;;;;5.47;2.90;;;;;;;26.35;42.04;102117.75;5011121;28;20030;-63
2022/07/18 10:17:48;;;;;;;4.03;2.63;;;;;;;26.52;41.00;102120.91;5010719;28;20025;-63
2022/07/18 10:20:14;;;;;;;5.03;3.00;;;;;;;26.53;42.58;102122.69;5010720;28;20088;-63
2022/07/18 10:22:42;;;;;;;7.90;3.50;;;;;;;26.65;42.01;102113.50;5011001;28;20037;-63
2022/07/18 10:25:11;;;;;;;8.80;3.20;;;;;;;26.73;43.22;102124.03;5008821;28;20041;-63
2022/07/18 10:28:00;;;;;;;5.95;2.90;;;;;;;26.80;44.63;102122.97;5009879;28;20030;-63
2022/07/18 10:30:46;;;;;;;7.75;2.80;;;;;;;26.95;44.56;102116.34;5009558;28;20036;-63
2022/07/18 10:33:45;;;;;;;7.53;3.05;;;;;;;27.07;44.70;102118.72;5009509;28;20079;-63
2022/07/18 10:36:21;;;;;;;5.00;3.08;;;;;;;27.20;44.89;102119.28;5008112;28;20108;-62
2022/07/18 10:39:06;;;;;;;8.27;3.10;;;;;;;27.30;42.12;102111.91;5009603;28;20058;-62
2022/07/18 10:41:31;;;;;;;6.45;2.70;;;;;;;27.37;43.95;102107.28;5011140;28;20033;-62
2022/07/18 10:43:57;;;;;;;5.20;3.05;;;;;;;27.38;43.22;102109.06;5011259;28;20033;-62
2022/07/18 10:46:22;;;;;;;6.35;2.95;;;;;;;27.50;42.63;102105.16;5011168;28;20450;-62
2022/07/18 10:48:50;;;;;;;5.97;2.83;;;;;;;27.61;43.63;102102.19;5010005;28;20026;-62
2022/07/18 10:51:16;;;;;;;6.03;3.03;;;;;;;27.65;43.14;102101.16;5010016;28;20211;-62
2022/07/18 10:53:53;;;;;;;5.47;3.25;;;;;;;27.85;44.45;102100.59;5010040;28;20211;-62
2022/07/18 10:56:41;;;;;;;6.60;2.90;;;;;;;27.86;45.55;102099.69;5009224;28;20030;-62
2022/07/18 10:59:22;;;;;;;6.05;2.95;;;;;;;27.99;44.21;102103.78;5008881;28;20114;-62
2022/07/18 11:01:56;;;;;;;5.55;3.28;;;;;;;28.04;44.01;102100.97;5010922;28;20442;-62
2022/07/18 11:04:37;;;;;;;6.13;3.17;;;;;;;28.20;43.16;102096.91;5008599;28;20053;-62
2022/07/18 11:07:14;;;;;;;9.18;3.30;;;;;;;28.27;41.76;102095.81;5010235;28;20038;-62
2022/07/18 11:09:40;;;;;;;9.10;4.03;;;;;;;28.27;40.98;102090.44;5004266;28;20048;-62
2022/07/18 11:12:25;;;;;;;5.93;3.30;;;;;;;28.49;42.10;102091.56;5009548;28;20032;-62
2022/07/18 11:15:12;;;;;;;4.78;2.80;;;;;;;28.54;40.40;102085.13;5009523;28;20041;-62
2022/07/18 11:17:58;;;;;;;5.80;3.40;;;;;;;28.64;41.13;102087.56;5005062;28;20036;-62
2022/07/18 11:20:33;;;;;;;5.47;3.10;;;;;;;28.79;40.07;102087.91;4999587;28;20030;-62